Time;durP1;ratioP1;P1;durP2;ratioP2;P2;SDS_P1;SDS_P2;PMS_P1;PMS_P2;Temp;Humidity;BMP_temperature;BMP_pressure;BME280_temperature;BME280_humidity;BME280_pressure;Samples;Min_cycle;Max_cycle;Signal;HPM_P1;HPM_P2
2022/08/02 00:00:00;;;;;;;21.20;15.10;;;;;;;;;;5034299;28;20100;-63
2022/08/02 00:02:26;;;;;;;19.83;15.35;;;;;;;;;;5033836;28;20052;-62
2022/08/02 00:04:52;;;;;;;20.30;16.25;;;;;;;;;;5032690;28;20512;-60
2022/08/02 00:07:18;;;;;;;20.40;16.25;;;;;;;;;;5033313;28;20644;-61
2022/08/02 00:09:44;;;;;;;20.58;15.88;;;;;;;;;;5033246;28;20550;-62
2022/08/02 00:12:11;;;;;;;20.20;15.55;;;;;;;;;;5033688;28;20033;-61
2022/08/02 00:14:37;;;;;;;18.65;15.23;;;;;;;;;;5033889;28;20028;-61
2022/08/02 00:17:04;;;;;;;19.98;14.98;;;;;;;;;;5033546;28;20112;-60
2022/08/02 00:19:30;;;;;;;23.50;15.45;;;;;;;;;;5031827;28;20021;-61
2022/08/02 00:21:56;;;;;;;22.98;15.57;;;;;;;;;;5033558;28;20025;-61
2022/08/02 00:24:22;;;;;;;21.40;16.15;;;;;;;;;;5033564;28;20021;-61
2022/08/02 00:26:48;;;;;;;19.88;15.55;;;;;;;;;;5033800;28;20018;-61
2022/08/02 00:29:14;;;;;;;20.67;15.20;;;;;;;;;;5032913;28;20091;-60
2022/08/02 00:31:40;;;;;;;23.27;15.70;;;;;;;;;;5033399;28;20069;-62
2022/08/02 00:34:06;;;;;;;21.10;15.60;;;;;;;;;;5033494;28;20053;-61
2022/08/02 00:36:32;;;;;;;18.33;15.30;;;;;;;;;;5032191;28;20049;-61
2022/08/02 00:38:58;;;;;;;27.15;15.73;;;;;;;;;;5031304;28;20021;-59
2022/08/02 00:41:24;;;;;;;25.85;15.55;;;;;;;;;;5032178;28;20028;-61
2022/08/02 00:43:51;;;;;;;19.08;15.15;;;;;;;;;;5033416;28;20022;-61
2022/08/02 00:46:17;;;;;;;24.02;16.67;;;;;;;;;;5031900;28;20060;-62
2022/08/02 00:48:43;;;;;;;17.80;15.60;;;;;;;;;;5031165;28;20044;-61
2022/08/02 00:51:10;;;;;;;21.77;15.50;;;;;;;;;;5033126;28;20025;-60
2022/08/02 00:53:36;;;;;;;20.23;15.60;;;;;;;;;;5032921;28;20032;-61
2022/08/02 00:56:02;;;;;;;20.98;16.27;;;;;;;;;;5033206;28;20025;-61
2022/08/02 00:58:28;;;;;;;21.02;15.90;;;;;;;;;;5032440;28;20490;-60
2022/08/02 01:00:56;;;;;;;21.35;15.93;;;;;;;;;;5032920;28;20108;-61
2022/08/02 01:03:23;;;;;;;21.23;16.33;;;;;;;;;;5032998;28;20033;-59
2022/08/02 01:05:49;;;;;;;22.40;15.70;;;;;;;;;;5032953;28;20033;-63
2022/08/02 01:08:15;;;;;;;19.55;15.52;;;;;;;;;;5031939;28;20032;-62
2022/08/02 01:10:41;;;;;;;20.13;15.45;;;;;;;;;;5032875;28;20068;-61
2022/08/02 01:13:07;;;;;;;20.50;15.40;;;;;;;;;;5031382;28;20057;-62
2022/08/02 01:15:35;;;;;;;24.65;16.20;;;;;;;;;;5032355;28;20541;-60
2022/08/02 01:18:16;;;;;;;19.88;15.90;;;;;;;;;;5031968;28;20026;-60
2022/08/02 01:20:50;;;;;;;21.55;16.42;;;;;;;;;;5032322;28;20025;-60
2022/08/02 01:23:22;;;;;;;23.23;16.25;;;;;;;;;;5032879;28;20108;-60
2022/08/02 01:25:53;;;;;;;23.20;16.80;;;;;;;;;;5032716;28;20029;-57
2022/08/02 01:28:32;;;;;;;21.52;16.58;;;;;;;;;;5032030;28;20401;-60
2022/08/02 01:31:02;;;;;;;24.27;16.35;;;;;;;;;;5031230;28;20032;-61
2022/08/02 01:33:32;;;;;;;21.98;17.08;;;;;;;;;;5032443;28;20087;-60
2022/08/02 01:35:58;;;;;;;24.10;16.48;;;;;;;;;;5032378;28;20032;-61
2022/08/02 01:38:50;;;;;;;25.95;17.90;;;;;;;;;;5031666;28;20021;-62
2022/08/02 01:41:18;;;;;;;21.50;17.30;;;;;;;;;;5031517;28;20406;-62
2022/08/02 01:43:46;;;;;;;19.00;16.20;;;;;;;;;;5031916;28;20087;-61
2022/08/02 01:46:13;;;;;;;22.60;16.20;;;;;;;;;;5032125;28;20469;-59
2022/08/02 01:48:40;;;;;;;24.75;16.88;;;;;;;;;;5030265;28;20367;-62
2022/08/02 01:51:08;;;;;;;22.38;17.25;;;;;;;;;;5032243;28;20025;-62
2022/08/02 01:53:34;;;;;;;21.42;16.75;;;;;;;;;;5032257;28;20231;-60
2022/08/02 01:56:01;;;;;;;32.08;17.05;;;;;;;;;;5032021;28;20407;-62
2022/08/02 01:58:29;;;;;;;19.35;16.52;;;;;;;;;;5029995;28;20145;-60
2022/08/02 02:00:59;;;;;;;20.63;16.77;;;;;;;;;;5031846;28;20117;-62
2022/08/02 02:03:25;;;;;;;22.05;16.80;;;;;;;;;;5033148;28;20038;-62
2022/08/02 02:05:55;;;;;;;24.60;16.48;;;;;;;;;;5032109;28;20152;-62
2022/08/02 02:08:23;;;;;;;21.58;17.00;;;;;;;;;;5031277;28;20045;-62
2022/08/02 02:10:49;;;;;;;21.20;17.35;;;;;;;;;;5032263;28;20025;-63
2022/08/02 02:13:18;;;;;;;22.65;16.70;;;;;;;;;;5031946;28;20492;-62
2022/08/02 02:15:46;;;;;;;22.30;18.15;;;;;;;;;;5032076;28;20022;-61
2022/08/02 02:18:14;;;;;;;21.13;17.67;;;;;;;;;;5030015;28;20079;-62
2022/08/02 02:20:41;;;;;;;23.00;17.48;;;;;;;;;;5030680;28;20501;-62
2022/08/02 02:23:07;;;;;;;21.20;16.90;;;;;;;;;;5030706;28;20091;-62
2022/08/02 02:25:34;;;;;;;22.30;17.80;;;;;;;;;;5032057;28;20474;-61
2022/08/02 02:28:32;;;;;;;20.10;17.02;;;;;;;;;;5031231;28;20029;-62
2022/08/02 02:31:09;;;;;;;22.45;18.55;;;;;;;;;;5031452;28;20058;-61
2022/08/02 02:33:37;;;;;;;21.08;17.25;;;;;;;;;;5032699;28;20033;-62
2022/08/02 02:36:03;;;;;;;24.17;17.98;;;;;;;;;;5035695;28;20025;-62
2022/08/02 02:38:31;;;;;;;22.25;18.08;;;;;;;;;;5034836;28;20544;-62
2022/08/02 02:40:58;;;;;;;23.88;17.67;;;;;;;;;;5035613;28;20052;-62
2022/08/02 02:43:27;;;;;;;21.40;18.00;;;;;;;;;;5035598;28;20084;-61
2022/08/02 02:45:54;;;;;;;25.25;18.40;;;;;;;;;;5035275;28;20397;-59
2022/08/02 02:48:21;;;;;;;24.73;18.60;;;;;;;;;;5033464;28;20032;-63
2022/08/02 02:50:48;;;;;;;26.92;18.17;;;;;;;;;;5035620;28;20060;-59
2022/08/02 02:53:16;;;;;;;27.27;19.23;;;;;;;;;;5035184;28;20103;-62
2022/08/02 02:55:43;;;;;;;20.95;18.23;;;;;;;;;;5035191;28;20121;-62
2022/08/02 02:58:09;;;;;;;21.65;18.00;;;;;;;;;;5034532;28;20088;-61
2022/08/02 03:03:20;;;;;;;26.25;18.75;;;;;;;;;;5035322;28;20079;-61
2022/08/02 03:05:46;;;;;;;21.48;18.33;;;;;;;;;;5035280;28;20036;-61
2022/08/02 03:08:13;;;;;;;20.00;17.80;;;;;;;;;;5034603;28;20021;-61
2022/08/02 03:10:39;;;;;;;21.95;17.92;;;;;;;;;;5034884;28;20025;-61
2022/08/02 03:13:05;;;;;;;24.33;18.20;;;;;;;;;;5034715;28;20078;-61
2022/08/02 03:15:31;;;;;;;24.27;18.33;;;;;;;;;;5034834;28;20030;-61
2022/08/02 03:17:57;;;;;;;24.20;19.15;;;;;;;;;;5034283;28;20097;-62
2022/08/02 03:20:24;;;;;;;20.92;18.52;;;;;;;;;;5034773;28;20036;-61
2022/08/02 03:22:50;;;;;;;23.13;18.80;;;;;;;;;;5034868;28;20030;-60
2022/08/02 03:25:17;;;;;;;22.08;19.38;;;;;;;;;;5033559;28;20469;-61
2022/08/02 03:27:43;;;;;;;24.50;19.45;;;;;;;;;;5033821;28;20033;-61
2022/08/02 03:30:10;;;;;;;24.20;18.40;;;;;;;;;;5034764;28;20045;-61
2022/08/02 03:32:37;;;;;;;22.00;19.70;;;;;;;;;;5034546;28;20120;-60
2022/08/02 03:35:04;;;;;;;22.10;19.73;;;;;;;;;;5034556;28;20037;-61
2022/08/02 03:37:31;;;;;;;22.42;18.85;;;;;;;;;;5033846;28;20064;-63
2022/08/02 03:39:58;;;;;;;23.20;19.70;;;;;;;;;;5034684;28;20685;-62
2022/08/02 03:42:25;;;;;;;23.60;20.00;;;;;;;;;;5034248;28;20036;-62
2022/08/02 03:44:51;;;;;;;26.10;20.95;;;;;;;;;;5033780;28;20033;-61
2022/08/02 03:47:18;;;;;;;22.65;19.63;;;;;;;;;;5037611;28;20014;-59
2022/08/02 03:49:45;;;;;;;24.45;21.10;;;;;;;;;;5046355;28;20032;-62
2022/08/02 03:52:11;;;;;;;22.90;19.40;;;;;;;;;;5046171;28;20393;-62
2022/08/02 03:54:37;;;;;;;25.33;20.45;;;;;;;;;;5034722;28;20434;-62
2022/08/02 03:57:08;;;;;;;22.38;19.83;;;;;;;;;;5034232;28;20024;-60
2022/08/02 03:59:41;;;;;;;22.30;20.00;;;;;;;;;;5032508;28;20029;-60
2022/08/02 04:02:07;;;;;;;22.90;20.13;;;;;;;;;;5034208;28;20033;-61
2022/08/02 04:04:33;;;;;;;25.02;20.48;;;;;;;;;;5034110;28;20083;-61
2022/08/02 04:06:59;;;;;;;22.73;20.17;;;;;;;;;;5032792;28;20083;-62
2022/08/02 04:09:25;;;;;;;23.67;20.17;;;;;;;;;;5032847;28;20083;-61
2022/08/02 04:11:51;;;;;;;22.70;20.33;;;;;;;;;;5033949;28;20084;-62
2022/08/02 04:14:17;;;;;;;26.05;20.58;;;;;;;;;;5033818;28;20063;-60
2022/08/02 04:16:53;;;;;;;23.98;20.70;;;;;;;;;;5033998;28;20030;-60
2022/08/02 04:19:26;;;;;;;30.90;22.65;;;;;;;;;;5031739;28;20080;-59
2022/08/02 04:21:52;;;;;;;23.67;19.85;;;;;;;;;;5033768;28;20397;-58
2022/08/02 04:24:23;;;;;;;23.08;20.58;;;;;;;;;;5037014;28;20022;-62
2022/08/02 04:26:49;;;;;;;23.25;20.55;;;;;;;;;;5038425;28;20105;-63
2022/08/02 04:29:16;;;;;;;23.38;20.77;;;;;;;;;;5035537;28;20034;-61
2022/08/02 04:31:42;;;;;;;23.88;20.67;;;;;;;;;;5037696;28;20036;-60
2022/08/02 04:34:09;;;;;;;26.60;20.63;;;;;;;;;;5036237;28;20029;-61
2022/08/02 04:36:35;;;;;;;26.90;21.92;;;;;;;;;;5034092;28;20033;-63
2022/08/02 04:39:01;;;;;;;27.90;20.90;;;;;;;;;;5031833;28;20025;-60
2022/08/02 04:41:39;;;;;;;30.70;22.98;;;;;;;;;;5033712;28;20022;-61
2022/08/02 04:44:05;;;;;;;27.50;21.08;;;;;;;;;;5033476;28;20064;-61
2022/08/02 04:46:31;;;;;;;25.60;21.65;;;;;;;;;;5032016;28;20072;-61
2022/08/02 04:48:57;;;;;;;22.75;20.20;;;;;;;;;;5031047;28;20025;-61
2022/08/02 04:51:23;;;;;;;27.92;21.55;;;;;;;;;;5030488;28;20032;-62
2022/08/02 04:53:50;;;;;;;28.50;21.80;;;;;;;;;;5016748;28;20037;-61
2022/08/02 04:56:15;;;;;;;27.05;21.90;;;;;;;;;;5020493;28;20112;-62
2022/08/02 04:58:41;;;;;;;27.75;21.75;;;;;;;;;;5031989;28;20112;-61
2022/08/02 05:01:07;;;;;;;24.15;21.27;;;;;;;;;;5017036;28;20029;-62
2022/08/02 05:03:34;;;;;;;27.52;21.35;;;;;;;;;;5012770;28;20030;-60
2022/08/02 05:06:00;;;;;;;26.45;21.48;;;;;;;;;;5011801;28;20109;-63
2022/08/02 05:08:26;;;;;;;24.38;21.77;;;;;;;;;;5017380;28;20088;-62
2022/08/02 05:10:52;;;;;;;24.33;20.80;;;;;;;;;;5032393;28;20029;-62
2022/08/02 05:13:18;;;;;;;25.80;21.80;;;;;;;;;;5032484;28;20091;-62
2022/08/02 05:15:44;;;;;;;26.13;22.38;;;;;;;;;;5032715;28;20095;-62
2022/08/02 05:18:11;;;;;;;25.15;21.70;;;;;;;;;;5030448;28;20482;-62
2022/08/02 05:20:37;;;;;;;26.25;22.67;;;;;;;;;;5032665;28;20021;-62
2022/08/02 05:23:03;;;;;;;24.20;21.23;;;;;;;;;;5032367;28;20385;-64
2022/08/02 05:25:29;;;;;;;25.35;22.35;;;;;;;;;;5027371;28;20025;-61
2022/08/02 05:27:55;;;;;;;25.95;23.17;;;;;;;;;;5011763;28;20109;-62
2022/08/02 05:30:21;;;;;;;26.20;21.13;;;;;;;;;;5011803;28;20053;-61
2022/08/02 05:32:49;;;;;;;26.45;22.80;;;;;;;;;;5012363;28;20029;-63
2022/08/02 05:35:19;;;;;;;25.48;22.65;;;;;;;;;;5012547;28;20050;-63
2022/08/02 05:37:46;;;;;;;26.75;23.00;;;;;;;;;;5011932;28;20037;-61
2022/08/02 05:40:12;;;;;;;25.67;22.85;;;;;;;;;;5012303;28;20025;-61
2022/08/02 05:42:38;;;;;;;32.55;23.75;;;;;;;;;;5010699;28;20026;-60
2022/08/02 05:45:04;;;;;;;28.02;22.52;;;;;;;;;;5011814;28;20095;-59
2022/08/02 05:47:30;;;;;;;28.42;22.88;;;;;;;;;;5010952;28;20037;-53
2022/08/02 05:49:56;;;;;;;29.70;23.48;;;;;;;;;;5011995;28;20026;-60
2022/08/02 05:52:25;;;;;;;28.70;23.63;;;;;;;;;;5012412;28;20394;-62
2022/08/02 05:54:50;;;;;;;;;;;;;;;;;;5032359;28;20036;-61
2022/08/02 05:57:16;;;;;;;27.55;23.00;;;;;;;;;;5031182;28;20419;-58
2022/08/02 05:59:57;;;;;;;27.48;23.52;;;;;;;;;;5031593;28;20032;-61
2022/08/02 06:02:29;;;;;;;27.30;23.15;;;;;;;;;;5031712;28;20048;-60
2022/08/02 06:05:08;;;;;;;25.15;22.45;;;;;;;;;;5031691;28;20021;-61
2022/08/02 06:07:35;;;;;;;25.33;22.63;;;;;;;;;;5013994;28;20026;-58
2022/08/02 06:10:02;;;;;;;25.00;22.45;;;;;;;;;;5011724;28;20474;-59
2022/08/02 06:12:29;;;;;;;26.75;22.83;;;;;;;;;;5010434;28;20022;-62
2022/08/02 06:14:55;;;;;;;26.20;23.17;;;;;;;;;;5011794;28;20030;-62
2022/08/02 06:17:23;;;;;;;28.38;24.63;;;;;;;;;;5011174;28;20028;-64
2022/08/02 06:19:49;;;;;;;31.33;27.23;;;;;;;;;;5011797;28;20395;-61
2022/08/02 06:22:15;;;;;;;28.95;25.48;;;;;;;;;;5010130;28;20068;-64
2022/08/02 06:24:45;;;;;;;33.85;27.67;;;;;;;;;;5027071;28;20536;-64
2022/08/02 06:27:15;;;;;;;32.70;28.40;;;;;;;;;;5018466;28;20021;-60
2022/08/02 06:29:42;;;;;;;33.50;29.88;;;;;;;;;;5031300;28;20029;-65
2022/08/02 06:32:08;;;;;;;32.83;27.90;;;;;;;;;;5031026;28;20025;-66
2022/08/02 06:34:38;;;;;;;31.02;27.73;;;;;;;;;;5031297;28;20051;-67
2022/08/02 06:37:22;;;;;;;31.73;28.08;;;;;;;;;;5031077;28;20029;-67
2022/08/02 06:39:49;;;;;;;33.47;28.55;;;;;;;;;;5031664;28;20197;-67
2022/08/02 06:42:21;;;;;;;30.38;26.98;;;;;;;;;;5031411;28;20517;-66
2022/08/02 06:44:48;;;;;;;30.42;27.23;;;;;;;;;;5031096;28;20490;-67
2022/08/02 06:47:14;;;;;;;32.70;29.27;;;;;;;;;;5030879;28;20410;-67
2022/08/02 06:49:40;;;;;;;32.22;27.65;;;;;;;;;;5031392;28;20029;-68
2022/08/02 06:52:06;;;;;;;30.73;27.27;;;;;;;;;;5031290;28;20029;-67
2022/08/02 06:54:34;;;;;;;30.98;27.48;;;;;;;;;;5031302;28;20028;-67
2022/08/02 06:57:01;;;;;;;33.00;29.65;;;;;;;;;;5031033;28;20028;-67
2022/08/02 06:59:27;;;;;;;35.22;29.13;;;;;;;;;;5030753;28;20510;-66
2022/08/02 07:01:54;;;;;;;31.27;27.77;;;;;;;;;;5031336;28;20486;-67
2022/08/02 07:04:20;;;;;;;29.67;26.50;;;;;;;;;;5031057;28;20398;-67
2022/08/02 07:06:46;;;;;;;29.67;26.58;;;;;;;;;;5029807;28;20040;-67
2022/08/02 07:09:12;;;;;;;31.05;25.48;;;;;;;;;;5029201;28;20026;-67
2022/08/02 07:11:38;;;;;;;28.83;25.73;;;;;;;;;;5028046;28;20065;-67
2022/08/02 07:14:04;;;;;;;28.55;25.20;;;;;;;;;;5031050;28;20106;-68
2022/08/02 07:16:30;;;;;;;29.83;25.52;;;;;;;;;;5024320;28;20018;-67
2022/08/02 07:18:56;;;;;;;27.35;24.05;;;;;;;;;;5015863;28;20025;-66
2022/08/02 07:21:22;;;;;;;27.23;24.25;;;;;;;;;;5021530;28;20108;-67
2022/08/02 07:23:48;;;;;;;27.73;23.77;;;;;;;;;;5030232;28;20497;-67
2022/08/02 07:26:14;;;;;;;26.10;23.35;;;;;;;;;;5032957;28;20043;-67
2022/08/02 07:28:40;;;;;;;29.20;24.42;;;;;;;;;;5030991;28;20025;-68
2022/08/02 07:31:06;;;;;;;24.70;21.92;;;;;;;;;;5031241;28;20489;-67
2022/08/02 07:33:32;;;;;;;24.70;22.08;;;;;;;;;;5031765;28;20505;-67
2022/08/02 07:35:58;;;;;;;26.08;21.77;;;;;;;;;;5022370;28;20037;-66
2022/08/02 07:38:24;;;;;;;24.23;21.00;;;;;;;;;;5023961;28;20091;-67
2022/08/02 07:40:50;;;;;;;25.27;20.83;;;;;;;;;;5024076;28;20021;-66
2022/08/02 07:43:16;;;;;;;25.92;20.70;;;;;;;;;;5022631;28;20034;-67
2022/08/02 07:45:42;;;;;;;25.83;21.92;;;;;;;;;;5025902;28;20472;-67
2022/08/02 07:48:09;;;;;;;22.80;18.98;;;;;;;;;;5033197;28;20029;-66
2022/08/02 07:50:35;;;;;;;24.23;19.73;;;;;;;;;;5033099;28;20163;-67
2022/08/02 07:53:01;;;;;;;25.05;19.02;;;;;;;;;;5034013;28;20026;-65
2022/08/02 07:55:27;;;;;;;22.40;18.73;;;;;;;;;;5032701;28;20029;-66
2022/08/02 07:57:53;;;;;;;25.83;19.20;;;;;;;;;;5031684;28;20497;-67
2022/08/02 08:00:19;;;;;;;25.98;18.65;;;;;;;;;;5034084;28;20468;-67
2022/08/02 08:02:46;;;;;;;22.23;19.77;;;;;;;;;;5034963;28;20064;-66
2022/08/02 08:05:12;;;;;;;24.10;19.08;;;;;;;;;;5033888;28;20037;-68
2022/08/02 08:07:38;;;;;;;21.67;18.88;;;;;;;;;;5033039;28;20488;-67
2022/08/02 08:10:06;;;;;;;24.40;19.42;;;;;;;;;;5033617;28;20099;-66
2022/08/02 08:12:32;;;;;;;27.10;18.90;;;;;;;;;;5032819;28;20044;-66
2022/08/02 08:14:58;;;;;;;25.13;19.52;;;;;;;;;;5030979;28;20041;-67
2022/08/02 08:17:24;;;;;;;25.25;18.67;;;;;;;;;;5030572;28;20040;-66
2022/08/02 08:19:50;;;;;;;22.45;19.83;;;;;;;;;;5030933;28;20018;-65
2022/08/02 08:22:16;;;;;;;22.95;18.73;;;;;;;;;;5032374;28;20390;-67
2022/08/02 08:24:42;;;;;;;20.40;17.85;;;;;;;;;;5033520;28;20100;-66
2022/08/02 08:27:13;;;;;;;22.27;17.73;;;;;;;;;;5031734;28;20092;-65
2022/08/02 08:29:39;;;;;;;22.15;17.98;;;;;;;;;;5033331;28;20021;-68
2022/08/02 08:32:05;;;;;;;21.98;17.10;;;;;;;;;;5032867;28;20029;-68
2022/08/02 08:34:33;;;;;;;22.98;18.23;;;;;;;;;;5033323;28;20029;-66
2022/08/02 08:36:59;;;;;;;22.00;16.92;;;;;;;;;;5033229;28;20482;-66
2022/08/02 08:39:25;;;;;;;22.42;17.80;;;;;;;;;;5032367;28;20025;-66
2022/08/02 08:41:51;;;;;;;19.48;16.13;;;;;;;;;;5033064;28;20100;-65
2022/08/02 08:44:17;;;;;;;23.77;17.05;;;;;;;;;;5033270;28;20025;-66
2022/08/02 08:46:47;;;;;;;20.05;17.23;;;;;;;;;;5033031;28;20407;-66
2022/08/02 08:49:25;;;;;;;20.45;17.02;;;;;;;;;;5030966;28;20032;-66
2022/08/02 08:51:54;;;;;;;19.65;17.38;;;;;;;;;;5020086;28;20112;-66
2022/08/02 08:54:22;;;;;;;20.40;17.63;;;;;;;;;;5011878;28;20046;-65
2022/08/02 08:56:48;;;;;;;23.52;17.65;;;;;;;;;;5011933;28;20029;-65
2022/08/02 08:59:14;;;;;;;23.80;17.92;;;;;;;;;;5015020;28;20060;-66
2022/08/02 09:01:40;;;;;;;21.45;17.75;;;;;;;;;;5017722;28;20065;-66
2022/08/02 09:04:06;;;;;;;20.40;17.63;;;;;;;;;;5029980;28;20025;-66
2022/08/02 09:06:32;;;;;;;22.77;17.30;;;;;;;;;;5024003;28;20036;-64
2022/08/02 09:08:58;;;;;;;18.63;16.60;;;;;;;;;;5021653;28;20116;-64
2022/08/02 09:11:24;;;;;;;19.25;16.20;;;;;;;;;;5020188;28;20022;-67
2022/08/02 09:14:01;;;;;;;19.00;16.23;;;;;;;;;;5020550;28;20032;-65
2022/08/02 09:16:40;;;;;;;24.08;16.92;;;;;;;;;;5013745;28;20029;-67
2022/08/02 09:19:19;;;;;;;22.08;16.83;;;;;;;;;;5011826;28;20506;-67
2022/08/02 09:21:45;;;;;;;19.60;17.48;;;;;;;;;;5011104;28;20458;-68
2022/08/02 09:24:15;;;;;;;20.48;18.10;;;;;;;;;;5010921;28;20576;-67
2022/08/02 09:26:42;;;;;;;21.33;18.48;;;;;;;;;;5012872;28;20030;-67
2022/08/02 09:29:08;;;;;;;20.27;18.08;;;;;;;;;;5012252;28;20077;-67
2022/08/02 09:31:34;;;;;;;21.30;18.20;;;;;;;;;;5012834;28;20034;-67
2022/08/02 09:34:00;;;;;;;20.85;17.70;;;;;;;;;;5016467;28;20406;-68
2022/08/02 09:36:27;;;;;;;19.38;16.48;;;;;;;;;;5017239;28;20410;-67
2022/08/02 09:38:58;;;;;;;19.42;17.35;;;;;;;;;;5014497;28;20018;-66
2022/08/02 09:41:28;;;;;;;19.52;16.92;;;;;;;;;;5022859;28;20021;-66
2022/08/02 09:43:55;;;;;;;20.35;16.70;;;;;;;;;;5019481;28;20091;-66
2022/08/02 09:46:21;;;;;;;19.40;16.90;;;;;;;;;;5013767;28;20022;-66
2022/08/02 09:48:47;;;;;;;19.98;17.10;;;;;;;;;;5012606;28;20033;-67
2022/08/02 09:51:16;;;;;;;19.83;16.70;;;;;;;;;;5012677;28;20060;-67
2022/08/02 09:53:43;;;;;;;18.95;16.95;;;;;;;;;;5012736;28;20026;-67
2022/08/02 09:56:09;;;;;;;19.65;17.40;;;;;;;;;;5012583;28;20026;-68
2022/08/02 09:58:39;;;;;;;19.45;16.80;;;;;;;;;;5010200;28;20030;-66
2022/08/02 10:01:05;;;;;;;21.10;16.88;;;;;;;;;;5011743;28;20041;-67
2022/08/02 10:03:31;;;;;;;19.55;17.20;;;;;;;;;;5031139;28;20025;-67
2022/08/02 10:05:59;;;;;;;19.50;17.30;;;;;;;;;;5031616;28;20025;-67
2022/08/02 10:08:25;;;;;;;19.92;17.25;;;;;;;;;;5030563;28;20026;-67
2022/08/02 10:11:00;;;;;;;18.67;16.38;;;;;;;;;;4679247;28;10000048;-68
2022/08/02 10:13:29;;;;;;;22.67;17.17;;;;;;;;;;5019164;28;20029;-68
2022/08/02 10:15:56;;;;;;;22.67;17.00;;;;;;;;;;5020867;28;20109;-68
2022/08/02 10:18:22;;;;;;;19.45;16.92;;;;;;;;;;5016158;28;20038;-66
2022/08/02 10:20:49;;;;;;;20.05;16.73;;;;;;;;;;5013732;28;20135;-67
2022/08/02 10:23:16;;;;;;;21.05;16.58;;;;;;;;;;5008088;28;20095;-66
2022/08/02 10:25:44;;;;;;;19.67;16.33;;;;;;;;;;5008565;28;20026;-67
2022/08/02 10:28:13;;;;;;;18.88;16.52;;;;;;;;;;5012865;28;20022;-68
2022/08/02 10:30:40;;;;;;;19.25;16.50;;;;;;;;;;5022901;28;20062;-66
2022/08/02 10:33:09;;;;;;;19.35;16.95;;;;;;;;;;5019614;28;20034;-67
2022/08/02 10:35:35;;;;;;;;;;;;;;;;;;5017092;28;20101;-68
2022/08/02 10:38:03;;;;;;;18.85;16.85;;;;;;;;;;5017668;28;19909;-68
2022/08/02 10:40:46;;;;;;;18.70;16.70;;;;;;;;;;5013597;28;20490;-67
2022/08/02 10:43:12;;;;;;;18.33;16.33;;;;;;;;;;5013682;28;20106;-65
2022/08/02 10:45:38;;;;;;;18.80;16.40;;;;;;;;;;5018129;28;20394;-66
2022/08/02 10:48:08;;;;;;;18.67;16.40;;;;;;;;;;5025016;28;20480;-67
2022/08/02 10:50:43;;;;;;;18.77;16.67;;;;;;;;;;5030710;28;20041;-66
2022/08/02 10:53:19;;;;;;;20.45;16.35;;;;;;;;;;5025035;28;20030;-66
2022/08/02 10:55:45;;;;;;;20.52;17.27;;;;;;;;;;4684572;28;10000666;-67
2022/08/02 10:58:20;;;;;;;20.13;17.17;;;;;;;;;;5030631;28;20022;-67
2022/08/02 11:00:46;;;;;;;19.23;16.85;;;;;;;;;;5034078;28;20128;-68
2022/08/02 11:03:27;;;;;;;20.50;16.42;;;;;;;;;;5043576;28;20033;-68
2022/08/02 11:06:03;;;;;;;19.58;16.90;;;;;;;;;;5030381;28;20108;-66
2022/08/02 11:08:30;;;;;;;18.73;16.67;;;;;;;;;;5025040;28;20057;-65
2022/08/02 11:11:15;;;;;;;18.55;16.38;;;;;;;;;;5020253;28;20025;-65
2022/08/02 11:14:05;;;;;;;18.98;17.08;;;;;;;;;;5018790;28;20430;-65
2022/08/02 11:16:58;;;;;;;19.15;17.05;;;;;;;;;;5014288;28;20037;-64
2022/08/02 11:19:24;;;;;;;19.17;17.00;;;;;;;;;;5018251;28;20121;-64
2022/08/02 11:21:59;;;;;;;18.85;16.85;;;;;;;;;;5035223;28;20017;-64
2022/08/02 11:24:27;;;;;;;20.85;16.83;;;;;;;;;;5034513;28;20025;-65
2022/08/02 11:26:53;;;;;;;18.97;16.97;;;;;;;;;;5021615;28;20397;-64
2022/08/02 11:29:19;;;;;;;19.08;16.65;;;;;;;;;;5013863;28;20022;-64
2022/08/02 11:31:46;;;;;;;18.40;16.50;;;;;;;;;;4704270;28;10000477;-63
2022/08/02 11:34:12;;;;;;;18.75;16.67;;;;;;;;;;5030983;28;20280;-63
2022/08/02 11:36:49;;;;;;;19.02;17.05;;;;;;;;;;5024995;28;20105;-64
2022/08/02 11:39:16;;;;;;;18.48;16.58;;;;;;;;;;5027046;28;20029;-59
2022/08/02 11:41:43;;;;;;;19.30;17.10;;;;;;;;;;5030898;28;20063;-63
2022/08/02 11:44:09;;;;;;;18.65;16.63;;;;;;;;;;5029588;28;20025;-62
2022/08/02 11:46:35;;;;;;;18.80;16.70;;;;;;;;;;5020806;28;20037;-62
2022/08/02 11:49:11;;;;;;;19.27;17.27;;;;;;;;;;5018299;28;20490;-63
2022/08/02 11:51:38;;;;;;;18.83;16.23;;;;;;;;;;5016090;28;20021;-63
2022/08/02 11:54:04;;;;;;;18.73;16.70;;;;;;;;;;5029118;28;20033;-63
2022/08/02 11:56:34;;;;;;;18.90;16.90;;;;;;;;;;5024069;28;20036;-63
2022/08/02 11:59:04;;;;;;;21.83;17.10;;;;;;;;;;5029851;28;20022;-64
2022/08/02 12:01:30;;;;;;;19.23;17.23;;;;;;;;;;5024082;28;20029;-63
2022/08/02 12:03:59;;;;;;;20.05;17.08;;;;;;;;;;5019466;28;20384;-62
2022/08/02 12:06:27;;;;;;;20.13;18.02;;;;;;;;;;5018788;28;20029;-62
2022/08/02 12:08:58;;;;;;;19.13;17.00;;;;;;;;;;5009458;28;20498;-62
2022/08/02 12:11:24;;;;;;;19.52;17.50;;;;;;;;;;5030133;28;20089;-64
2022/08/02 12:13:50;;;;;;;19.80;17.75;;;;;;;;;;5029902;28;20450;-62
2022/08/02 12:19:21;;;;;;;19.75;17.63;;;;;;;;;;5029311;28;20033;-62
2022/08/02 12:21:48;;;;;;;20.08;17.92;;;;;;;;;;5027905;28;20048;-62
2022/08/02 12:24:26;;;;;;;20.65;17.75;;;;;;;;;;5032223;28;20112;-61
2022/08/02 12:26:52;;;;;;;19.42;17.33;;;;;;;;;;5033105;28;20030;-63
2022/08/02 12:29:28;;;;;;;19.77;17.67;;;;;;;;;;5031535;28;20025;-63
2022/08/02 12:31:54;;;;;;;19.70;17.70;;;;;;;;;;5033604;28;20033;-63
2022/08/02 12:34:21;;;;;;;19.88;17.77;;;;;;;;;;5033124;28;20087;-63
2022/08/02 12:37:05;;;;;;;20.50;18.30;;;;;;;;;;5033058;28;20022;-63
2022/08/02 12:39:39;;;;;;;20.25;18.15;;;;;;;;;;5031624;28;20025;-62
2022/08/02 12:42:06;;;;;;;20.98;18.77;;;;;;;;;;5033344;28;20040;-64
2022/08/02 12:44:33;;;;;;;20.05;17.95;;;;;;;;;;5031470;28;20041;-62
2022/08/02 12:46:59;;;;;;;20.48;18.30;;;;;;;;;;5032767;28;20028;-63
2022/08/02 12:49:26;;;;;;;20.67;18.52;;;;;;;;;;5032300;28;20021;-63
2022/08/02 12:51:52;;;;;;;20.25;18.15;;;;;;;;;;5032643;28;20031;-62
2022/08/02 12:54:20;;;;;;;19.75;17.80;;;;;;;;;;5032718;28;20025;-63
2022/08/02 12:56:47;;;;;;;23.50;18.80;;;;;;;;;;5032643;28;20060;-63
2022/08/02 12:59:13;;;;;;;19.95;17.92;;;;;;;;;;5032254;28;20052;-62
2022/08/02 13:01:39;;;;;;;20.38;18.17;;;;;;;;;;5032298;28;20022;-62
2022/08/02 13:04:05;;;;;;;19.50;17.40;;;;;;;;;;5031218;28;20022;-63
2022/08/02 13:06:32;;;;;;;20.08;17.98;;;;;;;;;;5030617;28;20383;-62
2022/08/02 13:08:58;;;;;;;20.00;18.00;;;;;;;;;;5032009;28;20570;-62
2022/08/02 13:11:24;;;;;;;20.20;17.77;;;;;;;;;;5032631;28;20036;-60
2022/08/02 13:13:51;;;;;;;24.70;17.73;;;;;;;;;;5032325;28;20022;-57
2022/08/02 13:16:17;;;;;;;19.20;17.30;;;;;;;;;;5032195;28;20021;-62
2022/08/02 13:18:46;;;;;;;19.35;17.35;;;;;;;;;;5029408;28;20144;-63
2022/08/02 13:21:12;;;;;;;19.63;17.52;;;;;;;;;;5032146;28;20165;-63
2022/08/02 13:23:39;;;;;;;19.50;17.50;;;;;;;;;;5030806;28;20128;-63
2022/08/02 13:26:05;;;;;;;23.35;17.35;;;;;;;;;;5032158;28;20025;-62
2022/08/02 13:28:31;;;;;;;19.83;17.55;;;;;;;;;;5036350;28;20026;-62
2022/08/02 13:30:57;;;;;;;19.60;17.45;;;;;;;;;;5035695;28;20056;-62
2022/08/02 13:33:23;;;;;;;19.77;17.67;;;;;;;;;;5034179;28;20030;-60
2022/08/02 13:35:50;;;;;;;19.23;17.23;;;;;;;;;;5033694;28;20025;-62
2022/08/02 13:38:16;;;;;;;19.20;17.20;;;;;;;;;;5031422;28;20068;-62
2022/08/02 13:43:27;;;;;;;19.10;16.95;;;;;;;;;;5032298;28;20076;-62
2022/08/02 13:45:53;;;;;;;18.88;16.98;;;;;;;;;;5031799;28;20096;-62
2022/08/02 13:48:19;;;;;;;18.48;16.58;;;;;;;;;;5030863;28;20112;-62
2022/08/02 13:50:45;;;;;;;18.83;16.92;;;;;;;;;;5031674;28;20053;-63
2022/08/02 13:53:11;;;;;;;18.50;16.55;;;;;;;;;;5031446;28;20064;-61
2022/08/02 13:55:38;;;;;;;18.95;16.75;;;;;;;;;;5031470;28;20049;-63
2022/08/02 13:58:04;;;;;;;18.48;16.58;;;;;;;;;;5029640;28;20025;-62
2022/08/02 14:00:31;;;;;;;19.13;17.13;;;;;;;;;;5031369;28;20509;-61
2022/08/02 14:02:57;;;;;;;18.17;16.27;;;;;;;;;;5032795;28;20025;-63
2022/08/02 14:05:28;;;;;;;19.40;17.27;;;;;;;;;;5031867;28;20048;-62
2022/08/02 14:07:55;;;;;;;18.92;16.88;;;;;;;;;;5030766;28;20053;-61
2022/08/02 14:10:21;;;;;;;18.70;16.70;;;;;;;;;;5030329;28;20402;-67
2022/08/02 14:12:47;;;;;;;20.85;17.25;;;;;;;;;;5031378;28;20025;-63
2022/08/02 14:15:13;;;;;;;19.65;17.60;;;;;;;;;;5031416;28;20029;-62
2022/08/02 14:17:39;;;;;;;19.08;17.08;;;;;;;;;;5030940;28;20013;-66
2022/08/02 14:20:05;;;;;;;18.83;16.92;;;;;;;;;;5030207;28;20044;-65
2022/08/02 14:22:31;;;;;;;20.38;17.63;;;;;;;;;;4334867;28;10000015;-67
2022/08/02 14:24:57;;;;;;;19.27;17.10;;;;;;;;;;5029233;28;20029;-63
2022/08/02 14:27:23;;;;;;;19.42;17.40;;;;;;;;;;5028032;28;20444;-65